Time;durP1;ratioP1;P1;durP2;ratioP2;P2;SDS_P1;SDS_P2;PMS_P1;PMS_P2;Temp;Humidity;BMP_temperature;BMP_pressure;BME280_temperature;BME280_humidity;BME280_pressure;Samples;Min_cycle;Max_cycle;Signal;HPM_P1;HPM_P2
2022/07/09 00:00:05;;;;;;;10.57;2.53;;;;;;;;;;6152083;23;20087;-59
2022/07/09 00:02:34;;;;;;;16.05;3.67;;;;;;;;;;6178816;23;20471;-59
2022/07/09 00:05:04;;;;;;;22.35;3.42;;;;;;;;;;6153327;23;20052;-59
2022/07/09 00:07:33;;;;;;;15.98;3.33;;;;;;;;;;6178775;23;20152;-59
2022/07/09 00:10:00;;;;;;;13.00;2.92;;;;;;;;;;6179059;23;20021;-59
2022/07/09 00:12:28;;;;;;;12.30;3.30;;;;;;;;;;6179566;23;20083;-60
2022/07/09 00:14:55;;;;;;;20.15;3.05;;;;;;;;;;6179084;23;20021;-59
2022/07/09 00:17:22;;;;;;;16.10;2.60;;;;;;;;;;6179102;23;20049;-59
2022/07/09 00:19:49;;;;;;;14.63;2.60;;;;;;;;;;6178432;23;20084;-59
2022/07/09 00:22:17;;;;;;;15.05;3.25;;;;;;;;;;6178909;23;20017;-59
2022/07/09 00:24:44;;;;;;;17.00;2.90;;;;;;;;;;6179794;23;20513;-58
2022/07/09 00:27:11;;;;;;;11.18;2.70;;;;;;;;;;6178942;23;20027;-59
2022/07/09 00:29:39;;;;;;;17.35;3.03;;;;;;;;;;6153049;23;20025;-48
2022/07/09 00:32:06;;;;;;;10.40;2.40;;;;;;;;;;6178391;23;20029;-49
2022/07/09 00:34:33;;;;;;;12.02;2.83;;;;;;;;;;6179614;23;20028;-47
2022/07/09 00:37:01;;;;;;;12.65;2.53;;;;;;;;;;6178075;23;20025;-47
2022/07/09 00:39:29;;;;;;;12.93;2.88;;;;;;;;;;6177972;23;20025;-50
2022/07/09 00:42:08;;;;;;;15.25;3.25;;;;;;;;;;6152206;23;20017;-50
2022/07/09 00:44:35;;;;;;;12.25;3.15;;;;;;;;;;6180759;23;20025;-50
2022/07/09 00:47:03;;;;;;;;;;;;;;;;;;6131374;23;20025;-48
2022/07/09 00:49:31;;;;;;;14.07;3.00;;;;;;;;;;6181253;23;20042;-58
2022/07/09 00:52:01;;;;;;;18.02;3.00;;;;;;;;;;6182033;23;20025;-63
2022/07/09 00:54:28;;;;;;;15.35;3.55;;;;;;;;;;6181319;23;20084;-63
2022/07/09 00:56:55;;;;;;;14.30;3.00;;;;;;;;;;6181454;23;20049;-62
2022/07/09 00:59:23;;;;;;;14.52;2.78;;;;;;;;;;6181005;23;20053;-63
2022/07/09 01:01:50;;;;;;;14.50;3.80;;;;;;;;;;6180117;23;20395;-62
2022/07/09 01:04:18;;;;;;;11.95;3.20;;;;;;;;;;6181086;23;20071;-63
2022/07/09 01:06:45;;;;;;;14.73;2.75;;;;;;;;;;6180268;23;20021;-62
2022/07/09 01:09:13;;;;;;;14.75;3.08;;;;;;;;;;6181089;23;20475;-62
2022/07/09 01:11:40;;;;;;;19.65;3.65;;;;;;;;;;6180919;23;20021;-47
2022/07/09 01:14:08;;;;;;;11.13;2.85;;;;;;;;;;6179150;23;20032;-47
2022/07/09 01:16:37;;;;;;;21.45;3.92;;;;;;;;;;6180731;23;20028;-48
2022/07/09 01:19:04;;;;;;;14.25;3.25;;;;;;;;;;6181351;23;20033;-47
2022/07/09 01:21:35;;;;;;;12.90;3.00;;;;;;;;;;6181035;23;20351;-47
2022/07/09 01:24:03;;;;;;;17.05;3.75;;;;;;;;;;6155381;23;20068;-49
2022/07/09 01:26:31;;;;;;;19.13;3.70;;;;;;;;;;6181034;23;20021;-49
2022/07/09 01:29:00;;;;;;;16.30;3.83;;;;;;;;;;6181189;23;20029;-68
2022/07/09 01:31:27;;;;;;;11.85;2.90;;;;;;;;;;6180249;23;20083;-59
2022/07/09 01:33:55;;;;;;;14.75;3.38;;;;;;;;;;6180904;23;20390;-59
2022/07/09 01:36:22;;;;;;;12.23;3.17;;;;;;;;;;6180116;23;20057;-59
2022/07/09 01:38:49;;;;;;;13.75;3.25;;;;;;;;;;6181833;23;20052;-59
2022/07/09 01:41:16;;;;;;;11.13;3.05;;;;;;;;;;6179924;23;20025;-60
2022/07/09 01:43:44;;;;;;;14.43;2.95;;;;;;;;;;6181038;23;20091;-59
2022/07/09 01:46:11;;;;;;;19.65;3.88;;;;;;;;;;6179929;23;20057;-58
2022/07/09 01:48:42;;;;;;;15.70;3.15;;;;;;;;;;6181088;23;20036;-47
2022/07/09 01:51:09;;;;;;;9.93;2.78;;;;;;;;;;6180325;23;20021;-67
2022/07/09 01:53:37;;;;;;;16.70;3.97;;;;;;;;;;6180549;23;20029;-66
2022/07/09 01:56:08;;;;;;;15.48;3.00;;;;;;;;;;6180129;23;20334;-66
2022/07/09 01:58:36;;;;;;;12.10;3.53;;;;;;;;;;6179528;23;20017;-66
2022/07/09 02:01:04;;;;;;;13.35;3.40;;;;;;;;;;6153424;23;20025;-67
2022/07/09 02:03:31;;;;;;;14.95;3.08;;;;;;;;;;6179998;23;20080;-67
2022/07/09 02:05:58;;;;;;;17.23;3.17;;;;;;;;;;6179952;23;20138;-58
2022/07/09 02:08:26;;;;;;;15.88;3.28;;;;;;;;;;6180350;23;20079;-48
2022/07/09 02:10:54;;;;;;;;;;;;;;;;;;6180938;23;20119;-52
2022/07/09 02:13:22;;;;;;;13.10;3.17;;;;;;;;;;6179360;23;19920;-47
2022/07/09 02:15:49;;;;;;;14.63;3.30;;;;;;;;;;6180572;23;20025;-50
2022/07/09 02:18:16;;;;;;;15.55;3.30;;;;;;;;;;6180224;23;20024;-50
2022/07/09 02:20:43;;;;;;;16.02;3.38;;;;;;;;;;6180060;23;20021;-47
2022/07/09 02:23:11;;;;;;;12.60;3.50;;;;;;;;;;6180278;23;20458;-49
2022/07/09 02:25:38;;;;;;;12.43;3.47;;;;;;;;;;6178855;23;20029;-48
2022/07/09 02:28:05;;;;;;;12.15;2.65;;;;;;;;;;6181394;23;20029;-49
2022/07/09 02:30:34;;;;;;;17.65;3.13;;;;;;;;;;6179495;23;20044;-49
2022/07/09 02:33:02;;;;;;;12.93;3.30;;;;;;;;;;6177534;23;20060;-46
2022/07/09 02:35:29;;;;;;;13.82;3.20;;;;;;;;;;6177986;23;20048;-51
2022/07/09 02:37:56;;;;;;;15.98;3.15;;;;;;;;;;6180715;23;20048;-50
2022/07/09 02:40:24;;;;;;;16.80;3.45;;;;;;;;;;6179691;23;20460;-49
2022/07/09 02:42:51;;;;;;;12.80;3.25;;;;;;;;;;6180231;23;20028;-58
2022/07/09 02:45:18;;;;;;;15.77;3.20;;;;;;;;;;6179753;23;20029;-59
2022/07/09 02:47:45;;;;;;;17.77;3.60;;;;;;;;;;6180237;23;20029;-46
2022/07/09 02:50:13;;;;;;;14.45;3.65;;;;;;;;;;6179993;23;20024;-47
2022/07/09 02:52:40;;;;;;;14.93;3.92;;;;;;;;;;6180080;23;20021;-47
2022/07/09 02:55:07;;;;;;;11.95;3.15;;;;;;;;;;6179822;23;20087;-47
2022/07/09 02:57:35;;;;;;;13.43;3.13;;;;;;;;;;6180162;23;20521;-52
2022/07/09 03:00:03;;;;;;;14.20;3.20;;;;;;;;;;6180258;23;20087;-50
2022/07/09 03:02:30;;;;;;;9.50;2.85;;;;;;;;;;6176832;23;20047;-62
2022/07/09 03:04:58;;;;;;;13.20;3.10;;;;;;;;;;6180038;23;20021;-59
2022/07/09 03:07:25;;;;;;;12.13;3.45;;;;;;;;;;6178813;23;20036;-58
2022/07/09 03:09:52;;;;;;;12.98;3.17;;;;;;;;;;6180585;23;20025;-57
2022/07/09 03:12:20;;;;;;;11.15;2.88;;;;;;;;;;6178612;23;20025;-59
2022/07/09 03:14:47;;;;;;;15.15;2.92;;;;;;;;;;6179912;23;20025;-58
2022/07/09 03:17:14;;;;;;;12.50;2.85;;;;;;;;;;6179301;23;20056;-59
2022/07/09 03:19:42;;;;;;;10.50;2.80;;;;;;;;;;6180513;23;20088;-59
2022/07/09 03:22:09;;;;;;;11.02;3.22;;;;;;;;;;6179796;23;20091;-63
2022/07/09 03:24:36;;;;;;;9.80;2.25;;;;;;;;;;6180317;23;20025;-67
2022/07/09 03:27:04;;;;;;;9.93;1.92;;;;;;;;;;6179511;23;20467;-68
2022/07/09 03:29:31;;;;;;;7.50;2.88;;;;;;;;;;6180587;23;20080;-67
2022/07/09 03:31:58;;;;;;;9.50;2.40;;;;;;;;;;6180296;23;20021;-67
2022/07/09 03:34:26;;;;;;;9.43;2.00;;;;;;;;;;6179553;23;20092;-68
2022/07/09 03:36:53;;;;;;;;;;;;;;;;;;6179844;23;20028;-67
2022/07/09 03:39:20;;;;;;;12.05;2.50;;;;;;;;;;6179866;23;20334;-67
2022/07/09 03:41:47;;;;;;;15.13;2.47;;;;;;;;;;6177891;23;20021;-53
2022/07/09 03:44:14;;;;;;;10.10;3.03;;;;;;;;;;6179555;23;20084;-59
2022/07/09 03:46:42;;;;;;;13.63;2.85;;;;;;;;;;6179203;23;20025;-58
2022/07/09 03:49:10;;;;;;;9.15;2.38;;;;;;;;;;6179718;23;20032;-59
2022/07/09 03:51:37;;;;;;;8.05;2.00;;;;;;;;;;6179223;23;20049;-59
2022/07/09 03:54:23;;;;;;;9.70;2.10;;;;;;;;;;6178835;23;20100;-59
2022/07/09 03:56:50;;;;;;;10.07;2.25;;;;;;;;;;6178416;23;20028;-59
2022/07/09 03:59:18;;;;;;;14.13;3.00;;;;;;;;;;6179032;23;20053;-56
2022/07/09 04:01:45;;;;;;;11.57;1.85;;;;;;;;;;6178530;23;20025;-61
2022/07/09 04:04:13;;;;;;;;;;;;;;;;;;6179557;23;20060;-63
2022/07/09 04:06:40;;;;;;;10.60;2.45;;;;;;;;;;6178925;23;19931;-62
2022/07/09 04:09:07;;;;;;;8.45;1.90;;;;;;;;;;6180107;23;20028;-62
2022/07/09 04:11:35;;;;;;;8.23;2.03;;;;;;;;;;6177530;23;20463;-63
2022/07/09 04:14:02;;;;;;;11.48;2.20;;;;;;;;;;6180748;23;20071;-63
2022/07/09 04:16:29;;;;;;;;;;;;;;;;;;6177597;23;20033;-63
2022/07/09 04:18:57;;;;;;;12.98;1.63;;;;;;;;;;6176859;23;19916;-62
2022/07/09 04:21:24;;;;;;;7.63;2.10;;;;;;;;;;6177614;23;20025;-62
2022/07/09 04:23:52;;;;;;;13.25;1.95;;;;;;;;;;6178479;23;20021;-59
2022/07/09 04:26:20;;;;;;;8.48;2.30;;;;;;;;;;6178906;23;20028;-59
2022/07/09 04:28:47;;;;;;;6.78;1.65;;;;;;;;;;6181743;23;20025;-59
2022/07/09 04:31:15;;;;;;;10.10;2.58;;;;;;;;;;6180812;23;20036;-59
2022/07/09 04:33:44;;;;;;;8.02;1.95;;;;;;;;;;6180535;23;20029;-60
2022/07/09 04:36:12;;;;;;;7.32;2.10;;;;;;;;;;6180597;23;20355;-59
2022/07/09 04:38:39;;;;;;;8.77;2.13;;;;;;;;;;6181555;23;20028;-59
2022/07/09 04:41:06;;;;;;;;;;;;;;;;;;6181482;23;20080;-58
2022/07/09 04:43:33;;;;;;;7.68;1.90;;;;;;;;;;6181287;23;19916;-58
2022/07/09 04:46:01;;;;;;;8.60;1.70;;;;;;;;;;6181520;23;20028;-57
2022/07/09 04:48:28;;;;;;;12.15;2.17;;;;;;;;;;6181164;23;20033;-58
2022/07/09 04:50:56;;;;;;;9.43;1.73;;;;;;;;;;6154533;23;20021;-59
2022/07/09 04:53:24;;;;;;;9.77;1.80;;;;;;;;;;6182027;23;20044;-55
2022/07/09 04:55:51;;;;;;;8.07;1.92;;;;;;;;;;6181054;23;20025;-58
2022/07/09 04:58:18;;;;;;;5.80;1.63;;;;;;;;;;6179156;23;20466;-62
2022/07/09 05:00:45;;;;;;;11.23;2.08;;;;;;;;;;6181026;23;20467;-58
2022/07/09 05:03:13;;;;;;;8.02;1.73;;;;;;;;;;6179716;23;20017;-58
2022/07/09 05:05:40;;;;;;;6.40;1.75;;;;;;;;;;6179636;23;20035;-57
2022/07/09 05:08:16;;;;;;;7.47;1.33;;;;;;;;;;6181306;23;20104;-58
2022/07/09 05:10:43;;;;;;;;;;;;;;;;;;6181541;23;20029;-58
2022/07/09 05:13:11;;;;;;;10.52;1.80;;;;;;;;;;6180964;23;19916;-58
2022/07/09 05:15:38;;;;;;;9.52;1.95;;;;;;;;;;6180663;23;20028;-59
2022/07/09 05:18:05;;;;;;;;;;;;;;;;;;6181067;23;20036;-59
2022/07/09 05:20:33;;;;;;;10.02;1.58;;;;;;;;;;6180896;23;19916;-66
2022/07/09 08:11:09;;;;;;;10.55;2.50;;;;;;;;;;6213378;22;1577844;-49
2022/07/09 08:13:36;;;;;;;;;;;;;;;;;;6209677;23;20411;-50
2022/07/09 08:16:04;;;;;;;4.25;1.00;;;;;;;;;;6209968;23;20330;-50
2022/07/09 08:18:31;;;;;;;;;;;;;;;;;;6210761;23;20028;-51
2022/07/09 08:20:59;;;;;;;3.72;0.77;;;;;;;;;;6208287;23;19946;-50
2022/07/09 08:23:26;;;;;;;2.10;0.90;;;;;;;;;;6209728;23;20276;-48
2022/07/09 08:25:53;;;;;;;9.30;1.27;;;;;;;;;;6209626;23;20024;-54
2022/07/09 08:28:20;;;;;;;3.03;0.95;;;;;;;;;;6210134;23;20025;-65
2022/07/09 08:30:48;;;;;;;5.65;0.95;;;;;;;;;;6207137;23;20463;-59
2022/07/09 08:33:15;;;;;;;5.80;1.15;;;;;;;;;;6207305;23;20075;-59
2022/07/09 08:35:43;;;;;;;4.90;1.10;;;;;;;;;;6208464;23;20024;-58
2022/07/09 08:38:10;;;;;;;2.08;0.80;;;;;;;;;;6207806;23;20809;-59
2022/07/09 08:40:37;;;;;;;4.60;1.00;;;;;;;;;;6210144;23;20059;-59
2022/07/09 08:43:04;;;;;;;2.88;0.90;;;;;;;;;;6183322;23;20029;-59
2022/07/09 08:45:32;;;;;;;6.55;1.08;;;;;;;;;;6209922;23;20066;-49
2022/07/09 08:48:01;;;;;;;5.72;1.25;;;;;;;;;;6209497;23;20560;-47
2022/07/09 08:50:29;;;;;;;6.50;1.02;;;;;;;;;;6210247;23;20401;-58
2022/07/09 08:52:56;;;;;;;;;;;;;;;;;;6206553;23;20025;-59
2022/07/09 08:55:24;;;;;;;8.18;0.82;;;;;;;;;;6209796;23;20451;-59
2022/07/09 08:57:51;;;;;;;3.05;0.73;;;;;;;;;;6183671;23;20032;-59
2022/07/09 09:00:18;;;;;;;3.40;0.98;;;;;;;;;;6208222;23;20066;-59
2022/07/09 09:02:46;;;;;;;1.95;0.70;;;;;;;;;;6207344;23;20358;-59
2022/07/09 09:05:14;;;;;;;3.70;0.98;;;;;;;;;;6209388;23;20062;-52
2022/07/09 09:07:41;;;;;;;4.80;0.70;;;;;;;;;;6209355;23;20055;-59
2022/07/09 09:10:09;;;;;;;1.20;0.52;;;;;;;;;;6188110;23;20025;-59
2022/07/09 09:12:36;;;;;;;3.65;0.90;;;;;;;;;;6178550;23;20076;-59
2022/07/09 09:15:03;;;;;;;;;;;;;;;;;;6177934;23;20025;-60
2022/07/09 09:17:31;;;;;;;8.70;1.00;;;;;;;;;;6180272;23;19916;-59
2022/07/09 09:20:12;;;;;;;2.75;0.70;;;;;;;;;;6180259;23;20060;-59
2022/07/09 09:22:47;;;;;;;4.25;0.88;;;;;;;;;;6180275;23;20017;-60
2022/07/09 09:25:18;;;;;;;6.13;0.80;;;;;;;;;;6179642;23;20526;-59
2022/07/09 09:27:52;;;;;;;2.38;0.70;;;;;;;;;;6180392;23;20029;-58
2022/07/09 09:30:20;;;;;;;3.60;0.80;;;;;;;;;;6180116;23;20056;-58
2022/07/09 09:32:57;;;;;;;1.75;0.60;;;;;;;;;;6180203;23;20045;-59
2022/07/09 09:35:28;;;;;;;5.68;1.25;;;;;;;;;;6179995;23;20673;-59
2022/07/09 09:37:56;;;;;;;5.28;0.80;;;;;;;;;;6179833;23;20021;-59
2022/07/09 09:40:23;;;;;;;;;;;;;;;;;;6181007;23;20029;-59
2022/07/09 09:42:50;;;;;;;5.05;1.00;;;;;;;;;;6179212;23;20330;-59
2022/07/09 09:45:23;;;;;;;4.68;1.00;;;;;;;;;;6178480;23;20024;-66
2022/07/09 09:47:50;;;;;;;;;;;;;;;;;;6176630;23;20021;-51
2022/07/09 09:50:19;;;;;;;5.60;0.98;;;;;;;;;;6177109;23;20425;-52
2022/07/09 09:52:47;;;;;;;2.63;0.70;;;;;;;;;;6177707;23;20091;-52
2022/07/09 09:55:15;;;;;;;1.55;0.63;;;;;;;;;;6178378;23;20024;-48
2022/07/09 09:57:43;;;;;;;4.43;1.02;;;;;;;;;;6178747;23;20021;-51
2022/07/09 10:00:14;;;;;;;3.20;0.95;;;;;;;;;;6175965;23;20056;-52
2022/07/09 10:02:44;;;;;;;2.90;0.95;;;;;;;;;;6175848;23;20021;-65
2022/07/09 10:05:11;;;;;;;5.82;0.85;;;;;;;;;;6179205;23;20025;-66
2022/07/09 10:07:43;;;;;;;2.33;0.55;;;;;;;;;;6179273;23;20021;-66
2022/07/09 10:10:17;;;;;;;3.78;0.57;;;;;;;;;;6179232;23;20548;-67
2022/07/09 10:12:45;;;;;;;4.25;0.55;;;;;;;;;;6178581;23;20021;-66
2022/07/09 10:15:22;;;;;;;3.97;1.10;;;;;;;;;;6177215;23;20025;-67
2022/07/09 10:17:49;;;;;;;3.30;0.70;;;;;;;;;;6179358;23;20028;-66
2022/07/09 10:20:17;;;;;;;;;;;;;;;;;;6179732;23;20080;-51
2022/07/09 10:22:45;;;;;;;1.02;0.60;;;;;;;;;;6179245;23;20334;-65
2022/07/09 10:25:22;;;;;;;4.22;0.80;;;;;;;;;;6176712;23;20091;-65
2022/07/09 10:27:50;;;;;;;;;;;;;;;;;;6179251;23;20017;-65
2022/07/09 10:30:25;;;;;;;0.98;0.50;;;;;;;;;;6179286;23;19920;-65
2022/07/09 10:33:08;;;;;;;1.10;0.40;;;;;;;;;;6177802;23;20029;-65
2022/07/09 10:35:45;;;;;;;2.78;0.60;;;;;;;;;;6178876;23;20060;-65
2022/07/09 10:38:13;;;;;;;3.25;0.60;;;;;;;;;;6178974;23;20025;-65
2022/07/09 10:40:44;;;;;;;1.92;0.70;;;;;;;;;;6179652;23;20067;-59
2022/07/09 10:43:12;;;;;;;2.75;0.80;;;;;;;;;;6178326;23;20536;-59
2022/07/09 10:45:39;;;;;;;3.92;0.65;;;;;;;;;;6178370;23;20079;-59
2022/07/09 10:48:07;;;;;;;2.03;0.40;;;;;;;;;;6178905;23;20032;-59
2022/07/09 10:50:37;;;;;;;2.33;0.70;;;;;;;;;;6179793;23;20099;-59
2022/07/09 10:53:05;;;;;;;2.65;0.82;;;;;;;;;;6177949;23;20029;-59
2022/07/09 10:55:32;;;;;;;1.77;0.60;;;;;;;;;;6179172;23;20025;-59
2022/07/09 10:58:01;;;;;;;1.48;0.60;;;;;;;;;;6178941;23;20076;-59
2022/07/09 11:00:30;;;;;;;2.92;0.77;;;;;;;;;;6180046;23;20025;-60
2022/07/09 11:02:57;;;;;;;1.55;0.57;;;;;;;;;;6177855;23;20396;-66
2022/07/09 11:05:28;;;;;;;4.32;0.60;;;;;;;;;;6179212;23;20028;-64
2022/07/09 11:07:56;;;;;;;3.80;0.60;;;;;;;;;;6179130;23;20021;-65
2022/07/09 11:10:25;;;;;;;1.52;0.75;;;;;;;;;;6180356;23;20474;-66
2022/07/09 11:12:53;;;;;;;0.98;0.50;;;;;;;;;;6180262;23;20021;-65
2022/07/09 11:15:21;;;;;;;5.10;0.60;;;;;;;;;;6180920;23;20028;-66
2022/07/09 11:17:55;;;;;;;3.40;0.90;;;;;;;;;;6179408;23;20475;-65
2022/07/09 11:20:23;;;;;;;2.08;0.73;;;;;;;;;;6180758;23;20063;-52
2022/07/09 11:22:50;;;;;;;;;;;;;;;;;;6180445;23;20328;-65
2022/07/09 11:25:32;;;;;;;2.40;0.73;;;;;;;;;;6180963;23;20015;-65
2022/07/09 11:28:00;;;;;;;3.05;0.63;;;;;;;;;;6180928;23;20343;-65
2022/07/09 11:30:28;;;;;;;4.07;0.88;;;;;;;;;;6179648;23;20032;-65
2022/07/09 11:32:55;;;;;;;3.25;0.60;;;;;;;;;;6180779;23;20108;-65
2022/07/09 11:35:26;;;;;;;2.97;0.82;;;;;;;;;;6180319;23;20021;-65
2022/07/09 11:37:53;;;;;;;2.30;0.80;;;;;;;;;;6180370;23;20553;-57
2022/07/09 11:40:20;;;;;;;;;;;;;;;;;;6180852;23;20079;-52
2022/07/09 11:42:49;;;;;;;2.15;0.88;;;;;;;;;;6180559;23;19920;-52
2022/07/09 11:45:20;;;;;;;2.83;0.80;;;;;;;;;;6180721;23;20025;-49
2022/07/09 11:47:48;;;;;;;1.98;0.60;;;;;;;;;;6180904;23;20025;-54
2022/07/09 11:50:18;;;;;;;2.08;0.73;;;;;;;;;;6179557;23;20020;-53
2022/07/09 11:52:50;;;;;;;1.48;0.60;;;;;;;;;;6180988;23;20028;-52
2022/07/09 11:55:19;;;;;;;2.90;0.73;;;;;;;;;;6180201;23;20028;-65
2022/07/09 11:57:57;;;;;;;2.42;0.57;;;;;;;;;;6180235;23;20022;-64
2022/07/09 12:00:29;;;;;;;2.67;0.60;;;;;;;;;;6180739;23;20032;-64
2022/07/09 12:02:59;;;;;;;1.80;0.43;;;;;;;;;;6179507;23;20063;-65
2022/07/09 12:05:31;;;;;;;1.20;0.40;;;;;;;;;;6179284;23;20028;-64
2022/07/09 12:07:59;;;;;;;1.65;0.60;;;;;;;;;;6178654;23;20032;-65
2022/07/09 12:10:28;;;;;;;1.02;0.50;;;;;;;;;;6179631;23;20063;-65
2022/07/09 12:12:55;;;;;;;1.55;0.55;;;;;;;;;;6153358;23;20087;-65
2022/07/09 12:15:23;;;;;;;1.80;0.60;;;;;;;;;;6180663;23;20079;-59
2022/07/09 12:17:54;;;;;;;6.13;0.52;;;;;;;;;;6180683;23;20025;-59
2022/07/09 12:20:22;;;;;;;2.08;0.47;;;;;;;;;;6178273;23;20100;-64
2022/07/09 12:22:50;;;;;;;3.20;0.82;;;;;;;;;;6179990;23;20021;-64
2022/07/09 12:25:17;;;;;;;0.95;0.47;;;;;;;;;;6180101;23;20021;-64
2022/07/09 12:27:45;;;;;;;2.42;0.65;;;;;;;;;;6179757;23;20553;-63
2022/07/09 12:30:12;;;;;;;;;;;;;;;;;;6179920;23;20021;-64
2022/07/09 12:32:40;;;;;;;1.75;0.77;;;;;;;;;;6179564;23;19923;-65
2022/07/09 12:35:09;;;;;;;1.85;0.65;;;;;;;;;;6178958;23;20483;-59
2022/07/09 12:37:39;;;;;;;2.95;0.82;;;;;;;;;;6180279;23;20068;-60
2022/07/09 12:40:09;;;;;;;0.65;0.40;;;;;;;;;;6179865;23;20025;-60
2022/07/09 12:42:37;;;;;;;1.30;0.65;;;;;;;;;;6180349;23;20021;-60
2022/07/09 12:45:05;;;;;;;0.90;0.43;;;;;;;;;;6151696;23;20375;-60
2022/07/09 12:47:37;;;;;;;1.95;0.40;;;;;;;;;;6180102;23;20105;-61
2022/07/09 12:50:04;;;;;;;;;;;;;;;;;;6181271;23;20033;-59
2022/07/09 12:52:35;;;;;;;1.13;0.50;;;;;;;;;;6178888;23;19970;-64
2022/07/09 12:55:03;;;;;;;2.45;0.57;;;;;;;;;;6180062;23;20021;-63
2022/07/09 12:57:30;;;;;;;1.80;0.47;;;;;;;;;;6180724;23;20079;-64
2022/07/09 12:59:57;;;;;;;1.27;0.50;;;;;;;;;;6180861;23;20033;-64
2022/07/09 13:02:25;;;;;;;2.08;0.60;;;;;;;;;;6178458;23;20025;-63
2022/07/09 13:04:53;;;;;;;2.65;0.75;;;;;;;;;;6179682;23;20035;-64
2022/07/09 13:07:20;;;;;;;2.25;0.60;;;;;;;;;;6178247;23;20475;-64
2022/07/09 13:09:47;;;;;;;;;;;;;;;;;;6179837;23;20036;-64
2022/07/09 13:12:15;;;;;;;2.20;0.45;;;;;;;;;;6176896;23;19966;-58
2022/07/09 13:14:42;;;;;;;1.67;0.60;;;;;;;;;;6179212;23;20021;-61
2022/07/09 13:17:10;;;;;;;1.52;0.50;;;;;;;;;;6177930;23;20021;-51
2022/07/09 13:19:57;;;;;;;2.10;0.40;;;;;;;;;;6180205;23;20020;-50
2022/07/09 13:22:24;;;;;;;2.17;0.50;;;;;;;;;;6179768;23;20025;-53
2022/07/09 13:24:51;;;;;;;;;;;;;;;;;;6154557;23;20459;-51
2022/07/09 13:27:19;;;;;;;2.63;0.73;;;;;;;;;;6179701;23;19967;-52
2022/07/09 13:29:47;;;;;;;1.95;0.68;;;;;;;;;;6178637;23;20454;-50
2022/07/09 13:32:14;;;;;;;1.10;0.50;;;;;;;;;;6179551;23;20021;-61
2022/07/09 13:34:49;;;;;;;5.13;0.85;;;;;;;;;;6179487;23;20033;-50
2022/07/09 13:37:16;;;;;;;3.40;1.02;;;;;;;;;;6178484;23;20091;-53
2022/07/09 13:39:43;;;;;;;4.15;1.20;;;;;;;;;;6179706;23;20025;-50
2022/07/09 13:42:10;;;;;;;2.05;0.68;;;;;;;;;;6179440;23;20032;-53
2022/07/09 13:44:38;;;;;;;;;;;;;;;;;;6179771;23;20064;-51
2022/07/09 13:47:06;;;;;;;2.90;0.70;;;;;;;;;;6179279;23;19926;-54
2022/07/09 13:49:33;;;;;;;6.00;0.90;;;;;;;;;;6178624;23;20280;-51
2022/07/09 13:52:01;;;;;;;1.55;0.45;;;;;;;;;;6179640;23;20031;-64
2022/07/09 13:54:28;;;;;;;2.13;0.70;;;;;;;;;;6175563;23;20425;-59
2022/07/09 13:56:56;;;;;;;3.10;0.85;;;;;;;;;;6179899;23;20021;-60
2022/07/09 13:59:24;;;;;;;3.92;0.90;;;;;;;;;;6179231;23;20028;-59
2022/07/09 14:01:51;;;;;;;4.72;0.80;;;;;;;;;;6180091;23;20024;-59
2022/07/09 14:04:19;;;;;;;;;;;;;;;;;;6179168;23;20029;-59
2022/07/09 14:06:46;;;;;;;1.57;0.43;;;;;;;;;;6179201;23;19920;-60
2022/07/09 14:09:20;;;;;;;4.95;0.93;;;;;;;;;;6178689;23;20240;-50
2022/07/09 14:11:48;;;;;;;3.33;0.65;;;;;;;;;;6179702;23;20025;-63
2022/07/09 14:14:15;;;;;;;1.73;0.68;;;;;;;;;;6179529;23;20075;-58
2022/07/09 14:16:42;;;;;;;5.47;0.75;;;;;;;;;;6179119;23;20471;-58
2022/07/09 14:19:09;;;;;;;;;;;;;;;;;;6178070;23;20075;-58
2022/07/09 14:21:36;;;;;;;3.63;0.60;;;;;;;;;;6179860;23;19916;-58
2022/07/09 14:24:11;;;;;;;3.63;0.77;;;;;;;;;;6178884;23;20032;-58
2022/07/09 14:26:41;;;;;;;1.95;0.50;;;;;;;;;;6178876;23;20071;-58
2022/07/09 14:29:08;;;;;;;2.15;0.50;;;;;;;;;;6179362;23;20095;-63
2022/07/09 14:31:35;;;;;;;2.30;0.80;;;;;;;;;;6177170;23;20553;-50
2022/07/09 14:34:03;;;;;;;;;;;;;;;;;;6179236;23;20048;-48
2022/07/09 14:36:30;;;;;;;2.90;0.70;;;;;;;;;;6178100;23;20262;-47
2022/07/09 14:38:58;;;;;;;2.70;0.60;;;;;;;;;;6178572;23;20028;-48
2022/07/09 14:41:26;;;;;;;3.75;1.00;;;;;;;;;;6177806;23;20025;-50
2022/07/09 14:43:53;;;;;;;2.88;0.70;;;;;;;;;;6177340;23;20022;-49
2022/07/09 14:46:20;;;;;;;1.50;0.50;;;;;;;;;;6180631;23;20072;-48
2022/07/09 14:48:47;;;;;;;;;;;;;;;;;;6182127;23;20124;-63
2022/07/09 14:51:15;;;;;;;2.80;0.40;;;;;;;;;;6178985;23;20416;-63
2022/07/09 14:53:42;;;;;;;1.40;0.50;;;;;;;;;;6181117;23;20474;-63
2022/07/09 14:56:10;;;;;;;2.15;0.65;;;;;;;;;;6181467;23;20026;-63
2022/07/09 14:58:37;;;;;;;0.93;0.45;;;;;;;;;;6180858;23;20508;-63
2022/07/09 15:01:05;;;;;;;1.55;0.63;;;;;;;;;;6181229;23;20419;-63
2022/07/09 15:03:33;;;;;;;3.53;0.70;;;;;;;;;;6177578;23;20095;-63
2022/07/09 15:06:00;;;;;;;4.68;0.85;;;;;;;;;;6179327;23;20029;-61
2022/07/09 15:08:27;;;;;;;1.88;0.63;;;;;;;;;;6178541;23;20025;-58
2022/07/09 15:10:55;;;;;;;;;;;;;;;;;;6179226;23;20072;-64
2022/07/09 15:13:22;;;;;;;0.73;0.50;;;;;;;;;;6177618;23;19970;-64
2022/07/09 15:15:49;;;;;;;2.05;0.63;;;;;;;;;;6177567;23;20529;-63
2022/07/09 15:18:16;;;;;;;2.22;0.57;;;;;;;;;;6176462;23;20024;-63
2022/07/09 15:20:44;;;;;;;1.73;0.73;;;;;;;;;;6179007;23;20029;-63
2022/07/09 15:23:11;;;;;;;2.00;0.60;;;;;;;;;;6175489;23;20021;-64
2022/07/09 15:25:39;;;;;;;4.78;0.60;;;;;;;;;;6178592;23;20056;-59
2022/07/09 15:28:06;;;;;;;2.25;0.60;;;;;;;;;;6176919;23;20025;-60
2022/07/09 15:30:33;;;;;;;;;;;;;;;;;;6179460;23;20028;-59
2022/07/09 15:33:01;;;;;;;2.30;0.55;;;;;;;;;;6178293;23;20304;-58
2022/07/09 15:35:28;;;;;;;0.85;0.40;;;;;;;;;;6178161;23;20470;-58
2022/07/09 15:37:55;;;;;;;0.55;0.35;;;;;;;;;;6176954;23;20393;-58
2022/07/09 15:40:23;;;;;;;2.80;0.70;;;;;;;;;;6154920;23;20028;-58
2022/07/09 15:42:50;;;;;;;1.85;0.65;;;;;;;;;;6181326;23;20339;-59
2022/07/09 15:45:20;;;;;;;1.48;0.50;;;;;;;;;;6181231;23;20025;-63
2022/07/09 15:47:47;;;;;;;1.35;0.55;;;;;;;;;;6180152;23;20471;-57
2022/07/09 15:50:18;;;;;;;1.88;0.47;;;;;;;;;;6181210;23;20125;-58
2022/07/09 15:52:45;;;;;;;;;;;;;;;;;;6181083;23;20025;-58
2022/07/09 15:55:13;;;;;;;1.92;0.65;;;;;;;;;;6180891;23;19966;-57
2022/07/09 15:57:41;;;;;;;1.67;0.50;;;;;;;;;;6181586;23;20079;-57
2022/07/09 16:00:08;;;;;;;;;;;;;;;;;;6182050;23;20024;-57
2022/07/09 16:02:37;;;;;;;1.30;0.50;;;;;;;;;;6181040;23;19916;-58
2022/07/09 16:05:05;;;;;;;1.83;0.75;;;;;;;;;;6181212;23;20048;-58
2022/07/09 16:07:33;;;;;;;2.80;0.52;;;;;;;;;;6181256;23;20025;-64
2022/07/09 16:10:01;;;;;;;2.20;0.82;;;;;;;;;;6180860;23;20478;-63
2022/07/09 16:15:14;;;;;;;1.83;0.57;;;;;;;;;;6181665;23;20021;-63
2022/07/09 16:17:41;;;;;;;1.77;0.82;;;;;;;;;;6180666;23;20025;-64
2022/07/09 16:20:11;;;;;;;2.25;0.70;;;;;;;;;;6179873;23;20446;-64
2022/07/09 16:22:39;;;;;;;3.08;0.40;;;;;;;;;;6181280;23;20033;-58
2022/07/09 16:25:09;;;;;;;1.80;0.60;;;;;;;;;;6181307;23;20021;-63
2022/07/09 16:27:37;;;;;;;5.70;0.80;;;;;;;;;;6180854;23;20060;-64
2022/07/09 16:30:05;;;;;;;2.58;0.45;;;;;;;;;;6180650;23;20021;-63
2022/07/09 16:32:32;;;;;;;0.60;0.40;;;;;;;;;;6181341;23;20332;-63
2022/07/09 16:34:59;;;;;;;;;;;;;;;;;;6180010;23;20063;-64
2022/07/09 16:37:27;;;;;;;2.20;0.70;;;;;;;;;;6180651;23;19924;-63
2022/07/09 16:39:54;;;;;;;3.03;0.63;;;;;;;;;;6180510;23;20061;-64
2022/07/09 16:42:21;;;;;;;2.25;0.73;;;;;;;;;;6180444;23;20053;-58
2022/07/09 16:44:48;;;;;;;6.65;0.82;;;;;;;;;;6180988;23;20093;-59
2022/07/09 16:47:16;;;;;;;3.65;1.20;;;;;;;;;;6180829;23;20087;-59
2022/07/09 16:49:43;;;;;;;1.00;0.60;;;;;;;;;;6179013;23;20021;-59
2022/07/09 16:52:30;;;;;;;3.85;1.13;;;;;;;;;;6180687;23;20060;-60
2022/07/09 16:54:57;;;;;;;3.75;0.63;;;;;;;;;;6154490;23;20072;-60
2022/07/09 16:57:25;;;;;;;6.95;0.75;;;;;;;;;;6180922;23;20363;-59
2022/07/09 16:59:53;;;;;;;3.45;0.60;;;;;;;;;;6178880;23;20477;-60
2022/07/09 17:02:39;;;;;;;4.05;0.70;;;;;;;;;;6179844;23;20073;-63
2022/07/09 17:05:07;;;;;;;2.72;0.80;;;;;;;;;;6180465;23;20025;-63
2022/07/09 17:07:35;;;;;;;;;;;;;;;;;;6179890;23;20017;-63
2022/07/09 17:10:02;;;;;;;1.40;0.60;;;;;;;;;;6180925;23;19916;-62
2022/07/09 17:12:29;;;;;;;3.90;0.75;;;;;;;;;;6180808;23;20029;-62
2022/07/09 17:14:58;;;;;;;3.72;0.73;;;;;;;;;;6180512;23;20458;-62
2022/07/09 17:17:26;;;;;;;2.55;0.93;;;;;;;;;;6180588;23;20021;-62
2022/07/09 17:19:53;;;;;;;;;;;;;;;;;;6180107;23;20057;-56
2022/07/09 17:22:21;;;;;;;2.33;0.55;;;;;;;;;;6180725;23;19916;-57
2022/07/09 17:24:48;;;;;;;2.03;0.80;;;;;;;;;;6179589;23;20032;-50
2022/07/09 17:27:15;;;;;;;4.93;0.60;;;;;;;;;;6177301;23;20021;-49
2022/07/09 17:29:43;;;;;;;4.38;0.98;;;;;;;;;;6178134;23;20427;-49
2022/07/09 17:32:16;;;;;;;3.58;0.75;;;;;;;;;;6179107;23;20028;-50
2022/07/09 17:34:43;;;;;;;3.50;0.82;;;;;;;;;;6178198;23;20024;-50
2022/07/09 17:37:10;;;;;;;5.88;0.88;;;;;;;;;;6178653;23;20033;-51
2022/07/09 17:39:37;;;;;;;2.75;1.05;;;;;;;;;;6175992;23;20075;-59
2022/07/09 17:42:05;;;;;;;;;;;;;;;;;;6178160;23;20083;-57
2022/07/09 17:44:32;;;;;;;;;;;;;;;;;;6178255;23;19956;-55
2022/07/09 17:46:59;;;;;;;;;;;;;;;;;;6174385;23;19975;-56